createdAt,value
2023-02-25T00:00:18.551Z,5.50
2023-02-25T00:02:19.042Z,8.00
2023-02-25T00:03:49.976Z,12.10
2023-02-25T00:05:49.759Z,6.20
2023-02-25T00:09:21.685Z,5.20
2023-02-25T00:10:21.649Z,6.80
2023-02-25T00:11:21.646Z,9.20
2023-02-25T00:15:23.006Z,9.50
2023-02-25T00:16:53.124Z,5.80
2023-02-25T00:20:56.374Z,7.30
2023-02-25T00:22:26.482Z,12.00
2023-02-25T00:26:58.410Z,11.20
2023-02-25T00:30:32.648Z,9.00
2023-02-25T00:34:04.647Z,10.60
2023-02-25T00:35:34.549Z,8.50
2023-02-25T00:37:34.957Z,4.90
2023-02-25T00:42:06.944Z,11.40
2023-02-25T00:45:07.991Z,8.50
2023-02-25T00:47:11.011Z,7.20
2023-02-25T00:52:13.993Z,10.90
2023-02-25T00:56:15.647Z,9.10
2023-02-25T00:59:51.115Z,8.40
2023-02-25T01:01:51.521Z,13.30
2023-02-25T01:03:21.623Z,13.70
2023-02-25T01:05:21.221Z,7.20
2023-02-25T01:07:21.640Z,17.50
2023-02-25T01:08:51.768Z,10.00
2023-02-25T01:09:51.727Z,8.50
2023-02-25T01:10:51.716Z,12.10
2023-02-25T01:11:51.714Z,10.30
2023-02-25T01:13:52.425Z,12.80
2023-02-25T01:22:06.649Z,12.20
2023-02-25T01:26:09.676Z,8.70
2023-02-25T01:29:45.114Z,8.30
2023-02-25T01:31:15.312Z,8.40
2023-02-25T01:32:45.581Z,12.00
2023-02-25T01:38:18.886Z,8.30
2023-02-25T01:40:49.925Z,8.20
2023-02-25T01:46:27.036Z,4.20
2023-02-25T01:47:57.927Z,7.50
2023-02-25T01:51:02.244Z,12.90
2023-02-25T01:52:31.568Z,6.80
2023-02-25T01:54:02.471Z,7.70
2023-02-25T01:55:32.593Z,6.10
2023-02-25T01:57:33.012Z,11.90
2023-02-25T02:00:05.386Z,8.80
2023-02-25T02:01:35.520Z,9.80
2023-02-25T02:03:05.239Z,8.60
2023-02-25T02:06:40.242Z,6.40
2023-02-25T02:09:14.262Z,8.40
2023-02-25T02:10:44.367Z,8.80
2023-02-25T02:13:46.320Z,6.80
2023-02-25T02:21:00.807Z,11.70
2023-02-25T02:24:03.910Z,8.20
2023-02-25T02:30:13.361Z,5.60
2023-02-25T02:32:13.850Z,12.70
2023-02-25T02:35:16.474Z,11.10
2023-02-25T02:36:46.409Z,11.40
2023-02-25T02:43:27.326Z,8.70
2023-02-25T02:52:02.454Z,8.90
2023-02-25T02:53:34.393Z,11.70
2023-02-25T02:55:03.486Z,8.20
2023-02-25T02:57:33.894Z,12.90
2023-02-25T03:02:38.305Z,9.70
2023-02-25T03:04:41.988Z,11.70
2023-02-25T03:10:46.382Z,11.40
2023-02-25T03:12:17.324Z,9.20
2023-02-25T03:15:19.361Z,7.00
2023-02-25T03:16:50.421Z,16.90
2023-02-25T03:20:22.642Z,9.20
2023-02-25T03:22:24.745Z,13.00
2023-02-25T03:25:26.225Z,6.50
2023-02-25T03:29:00.832Z,10.20
2023-02-25T03:38:16.262Z,10.40
2023-02-25T03:40:16.667Z,10.60
2023-02-25T03:42:17.107Z,11.20
2023-02-25T03:45:19.362Z,13.10
2023-02-25T03:48:56.031Z,6.80
2023-02-25T03:55:04.697Z,11.30
2023-02-25T04:02:42.614Z,9.80
2023-02-25T04:04:12.326Z,14.50
2023-02-25T04:06:13.190Z,10.30
2023-02-25T04:08:14.762Z,19.00
2023-02-25T04:12:46.554Z,11.30
2023-02-25T04:14:46.000Z,6.90
2023-02-25T04:16:46.395Z,13.00
2023-02-25T04:18:47.043Z,12.10
2023-02-25T04:19:47.043Z,8.20
2023-02-25T04:20:46.982Z,10.40
2023-02-25T04:27:26.453Z,10.80
2023-02-25T04:38:20.443Z,4.40
2023-02-25T04:41:23.404Z,10.80
2023-02-25T04:42:54.360Z,13.60
2023-02-25T04:51:27.984Z,8.60
2023-02-25T04:52:57.721Z,11.10
2023-02-25T04:55:29.686Z,11.30
2023-02-25T05:01:03.487Z,13.20
2023-02-25T05:07:10.269Z,9.60
2023-02-25T05:08:39.996Z,14.20
2023-02-25T05:10:40.245Z,8.90
2023-02-25T05:12:09.972Z,11.30
2023-02-25T05:14:22.540Z,15.60
2023-02-25T05:15:52.777Z,13.70
2023-02-25T05:22:16.925Z,12.70
2023-02-25T05:27:25.756Z,14.00
2023-02-25T05:30:58.844Z,9.40
2023-02-25T05:32:29.073Z,15.30
2023-02-25T05:36:58.075Z,10.50
2023-02-25T05:42:04.631Z,9.80
2023-02-25T05:44:37.123Z,10.80
2023-02-25T05:50:45.940Z,8.60
2023-02-25T05:52:43.707Z,10.30
2023-02-25T06:03:25.373Z,7.00
2023-02-25T06:06:26.424Z,10.80
2023-02-25T06:12:27.938Z,7.00
2023-02-25T06:15:29.345Z,8.20
2023-02-25T06:19:35.081Z,4.70
2023-02-25T06:21:06.276Z,10.20
2023-02-25T06:31:49.376Z,10.30
2023-02-25T06:34:50.137Z,10.30
2023-02-25T06:36:50.558Z,12.10
2023-02-25T06:47:39.386Z,9.40
2023-02-25T06:50:10.113Z,11.50
2023-02-25T06:57:17.706Z,6.80
2023-02-25T06:59:51.732Z,11.70
2023-02-25T07:01:52.976Z,7.60
2023-02-25T07:03:23.071Z,6.20
2023-02-25T07:04:53.205Z,9.40
2023-02-25T07:07:25.094Z,11.00
2023-02-25T07:09:24.357Z,12.10
2023-02-25T07:11:27.204Z,6.80
2023-02-25T07:14:27.437Z,4.20
2023-02-25T07:16:28.675Z,8.70
2023-02-25T07:19:03.519Z,5.30
2023-02-25T07:22:34.880Z,5.30
2023-02-25T07:25:08.131Z,2.70
2023-02-25T07:26:38.175Z,7.10
2023-02-25T07:28:07.913Z,4.80
2023-02-25T07:29:39.745Z,6.70
2023-02-25T07:32:08.107Z,8.90
2023-02-25T07:36:14.042Z,6.00
2023-02-25T07:39:17.858Z,7.80
2023-02-25T07:40:46.760Z,4.60
2023-02-25T07:46:32.664Z,6.00
2023-02-25T07:52:08.653Z,9.70
2023-02-25T07:55:06.318Z,6.60
2023-02-25T07:56:37.133Z,4.30
2023-02-25T07:59:08.702Z,10.30
2023-02-25T08:00:07.811Z,4.10
2023-02-25T08:01:07.833Z,5.40
2023-02-25T08:02:07.876Z,5.20
2023-02-25T08:03:38.094Z,1.80
2023-02-25T08:06:09.331Z,3.20
2023-02-25T08:09:39.635Z,1.60
2023-02-25T08:14:43.393Z,5.10
2023-02-25T08:15:43.426Z,4.70
2023-02-25T08:16:43.358Z,1.70
2023-02-25T08:18:45.061Z,4.70
2023-02-25T08:20:15.166Z,4.80
2023-02-25T08:21:46.107Z,2.30
2023-02-25T08:24:16.823Z,3.80
2023-02-25T08:25:47.750Z,4.60
2023-02-25T08:31:24.067Z,3.90
2023-02-25T08:34:25.513Z,4.10
2023-02-25T08:39:28.619Z,5.70
2023-02-25T08:44:29.796Z,2.80
2023-02-25T08:47:33.010Z,3.90
2023-02-25T08:52:43.622Z,2.90
2023-02-25T08:55:15.471Z,2.50
2023-02-25T08:57:14.390Z,4.00
2023-02-25T08:58:43.787Z,4.10
2023-02-25T09:00:13.499Z,6.50
2023-02-25T09:04:44.211Z,0.90
2023-02-25T09:06:13.834Z,2.20
2023-02-25T09:13:49.845Z,1.50
2023-02-25T09:15:49.797Z,1.40
2023-02-25T09:17:49.793Z,0.80
2023-02-25T09:22:53.082Z,3.20
2023-02-25T09:26:28.345Z,4.00
2023-02-25T09:29:01.608Z,3.10
2023-02-25T09:31:31.591Z,2.90
2023-02-25T09:33:30.843Z,1.60
2023-02-25T09:37:06.499Z,2.80
2023-02-25T09:42:08.208Z,3.10
2023-02-25T09:47:37.934Z,5.70
2023-02-25T09:52:10.674Z,2.90
2023-02-25T09:54:10.652Z,2.50
2023-02-25T09:59:49.312Z,5.30
2023-02-25T10:01:19.486Z,3.90
2023-02-25T10:03:22.344Z,7.20
2023-02-25T10:04:51.949Z,4.30
2023-02-25T10:08:25.050Z,3.40
2023-02-25T10:16:03.639Z,3.70
2023-02-25T10:17:03.656Z,5.90
2023-02-25T10:18:03.570Z,5.70
2023-02-25T10:20:04.405Z,3.30
2023-02-25T10:23:07.240Z,5.80
2023-02-25T10:24:37.260Z,5.70
2023-02-25T10:32:43.262Z,2.90
2023-02-25T10:39:19.203Z,3.40
2023-02-25T10:40:48.106Z,5.10
2023-02-25T10:43:20.576Z,3.20
2023-02-25T10:45:51.739Z,4.50
2023-02-25T10:50:38.865Z,4.10
2023-02-25T10:51:57.061Z,5.10
2023-02-25T10:54:28.808Z,3.60
2023-02-25T10:57:02.392Z,6.70
2023-02-25T10:58:32.269Z,3.40
2023-02-25T11:00:03.063Z,3.60
2023-02-25T11:04:36.703Z,5.70
2023-02-25T11:06:37.132Z,6.60
2023-02-25T11:08:07.212Z,2.40
2023-02-25T11:09:37.334Z,9.00
2023-02-25T11:14:43.703Z,5.40
2023-02-25T11:18:15.078Z,3.30
2023-02-25T11:23:22.253Z,5.60
2023-02-25T11:27:26.383Z,2.90
2023-02-25T11:30:58.722Z,3.60
2023-02-25T11:35:02.662Z,3.50
2023-02-25T11:36:33.624Z,4.90
2023-02-25T11:40:06.609Z,3.40
2023-02-25T11:46:45.448Z,2.70
2023-02-25T11:48:15.719Z,1.80
2023-02-25T11:50:47.204Z,2.70
2023-02-25T11:52:17.326Z,4.10
2023-02-25T11:57:21.312Z,1.70
2023-02-25T12:01:22.079Z,1.60
2023-02-25T12:04:56.721Z,3.30
2023-02-25T12:06:26.846Z,4.20
2023-02-25T12:08:12.421Z,3.80
2023-02-25T12:09:27.872Z,2.30
2023-02-25T12:11:28.306Z,2.20
2023-02-25T12:12:58.426Z,3.70
2023-02-25T12:13:58.431Z,6.20
2023-02-25T12:14:58.382Z,2.00
2023-02-25T12:18:30.191Z,1.40
2023-02-25T12:21:02.693Z,3.70
2023-02-25T12:23:02.170Z,4.70
2023-02-25T12:26:36.791Z,2.20
2023-02-25T12:28:37.208Z,2.90
2023-02-25T12:31:40.001Z,1.10
2023-02-25T12:35:43.938Z,3.80
2023-02-25T12:37:13.705Z,0.90
2023-02-25T12:39:13.961Z,4.40
2023-02-25T12:41:45.688Z,6.20
2023-02-25T12:45:17.316Z,5.00
2023-02-25T12:46:47.794Z,1.40
2023-02-25T12:48:16.714Z,3.50
2023-02-25T12:51:21.263Z,2.60
2023-02-25T12:56:26.290Z,2.10
2023-02-25T13:01:28.343Z,0.90
2023-02-25T13:05:34.271Z,2.20
2023-02-25T13:07:04.081Z,1.60
2023-02-25T13:09:06.956Z,2.20
2023-02-25T13:10:37.079Z,1.10
2023-02-25T13:13:07.792Z,2.30
2023-02-25T13:15:42.321Z,1.70
2023-02-25T13:22:49.091Z,3.40
2023-02-25T13:23:49.152Z,1.70
2023-02-25T13:24:49.043Z,2.50
2023-02-25T13:26:49.537Z,2.30
2023-02-25T13:29:19.306Z,2.10
2023-02-25T13:31:50.460Z,2.30
2023-02-25T13:33:51.655Z,5.00
2023-02-25T13:35:23.116Z,3.20
2023-02-25T13:36:51.664Z,1.70
2023-02-25T13:43:23.703Z,1.10
2023-02-25T13:51:26.865Z,2.50
2023-02-25T13:53:57.162Z,0.60
2023-02-25T13:57:56.932Z,2.90
2023-02-25T14:00:27.112Z,2.50
2023-02-25T14:02:26.655Z,2.40
2023-02-25T14:05:26.371Z,5.00
2023-02-25T14:07:25.821Z,1.00
2023-02-25T14:08:56.040Z,2.40
2023-02-25T14:10:25.745Z,2.70
2023-02-25T14:12:55.030Z,2.00
2023-02-25T14:16:55.126Z,3.40
2023-02-25T14:18:56.345Z,4.30
2023-02-25T14:20:26.052Z,3.00
2023-02-25T14:21:55.824Z,1.00
2023-02-25T14:23:25.588Z,3.50
2023-02-25T14:26:57.056Z,1.40
2023-02-25T14:29:00.091Z,2.40
2023-02-25T14:30:30.246Z,1.00
2023-02-25T14:32:32.502Z,3.70
2023-02-25T14:41:13.258Z,5.30
2023-02-25T14:44:17.653Z,2.50
2023-02-25T14:46:18.089Z,2.60
2023-02-25T14:49:19.883Z,1.60
2023-02-25T14:51:21.266Z,3.80
2023-02-25T14:53:20.625Z,4.20
2023-02-25T14:55:20.312Z,1.40
2023-02-25T14:57:54.326Z,0.90
2023-02-25T14:59:56.567Z,3.50
2023-02-25T15:03:27.736Z,1.60
2023-02-25T15:06:08.270Z,3.10
2023-02-25T15:08:37.601Z,1.50
2023-02-25T15:11:40.417Z,3.40
2023-02-25T15:20:18.643Z,3.70
2023-02-25T15:24:21.582Z,2.50
2023-02-25T15:28:20.553Z,2.70
2023-02-25T15:34:24.756Z,0.80
2023-02-25T15:40:33.520Z,3.00
2023-02-25T15:42:03.255Z,3.20
2023-02-25T15:44:36.315Z,3.10
2023-02-25T15:48:10.016Z,3.80
2023-02-25T15:50:10.207Z,4.70
2023-02-25T15:52:43.408Z,5.20
2023-02-25T15:55:14.982Z,6.20
2023-02-25T16:00:23.296Z,1.60
2023-02-25T16:06:28.357Z,3.00
2023-02-25T16:07:58.133Z,4.60
2023-02-25T16:08:58.131Z,3.30
2023-02-25T16:09:58.074Z,3.80
2023-02-25T16:12:00.939Z,2.20
2023-02-25T16:14:33.287Z,3.40
2023-02-25T16:17:04.062Z,3.90
2023-02-25T16:21:09.791Z,4.30
2023-02-25T16:22:40.737Z,2.40
2023-02-25T16:28:45.269Z,6.30
2023-02-25T16:30:45.743Z,3.80
2023-02-25T16:33:16.434Z,1.60
2023-02-25T16:43:24.322Z,5.40
2023-02-25T16:45:25.592Z,3.50
2023-02-25T16:47:29.133Z,2.00
2023-02-25T16:49:30.454Z,3.30
2023-02-25T16:51:00.185Z,4.00
2023-02-25T16:54:02.322Z,3.10
2023-02-25T16:55:31.190Z,2.40
2023-02-25T16:57:00.939Z,2.50
2023-02-25T16:58:30.688Z,5.70
2023-02-25T17:00:01.140Z,3.60
2023-02-25T17:04:03.845Z,8.60
2023-02-25T17:06:02.524Z,3.40
2023-02-25T17:07:32.292Z,6.20
2023-02-25T17:12:07.920Z,4.30
2023-02-25T17:14:38.003Z,5.00
2023-02-25T17:17:07.822Z,5.10
2023-02-25T17:18:37.503Z,5.00
2023-02-25T17:21:06.723Z,2.90
2023-02-25T17:22:36.462Z,2.80
2023-02-25T17:28:09.325Z,2.90
2023-02-25T17:30:08.873Z,4.40
2023-02-25T17:32:09.345Z,5.80
2023-02-25T17:33:39.083Z,3.40
2023-02-25T17:35:08.779Z,3.20
2023-02-25T17:36:38.509Z,7.70
2023-02-25T17:39:38.074Z,6.40
2023-02-25T17:41:39.344Z,2.90
2023-02-25T17:43:39.343Z,3.10
2023-02-25T17:47:41.885Z,5.90
2023-02-25T17:49:43.954Z,3.40
2023-02-25T17:52:17.977Z,2.30
2023-02-25T17:55:06.379Z,4.60
2023-02-25T17:59:39.923Z,3.50
2023-02-25T18:04:47.526Z,6.60
2023-02-25T18:07:49.385Z,6.60
2023-02-25T18:11:22.385Z,5.90
2023-02-25T18:14:26.725Z,2.20
2023-02-25T18:15:59.905Z,4.50
2023-02-25T18:18:26.979Z,8.80
2023-02-25T18:22:32.505Z,6.70
2023-02-25T18:26:05.782Z,11.80
2023-02-25T18:28:05.076Z,5.80
2023-02-25T18:31:34.391Z,3.70
2023-02-25T18:35:05.317Z,1.70
2023-02-25T18:36:36.257Z,2.60
2023-02-25T18:40:08.417Z,11.20
2023-02-25T18:42:08.675Z,2.90
2023-02-25T18:44:07.895Z,0.80
2023-02-25T18:46:37.706Z,3.20
2023-02-25T18:48:07.390Z,4.90
2023-02-25T18:49:37.082Z,1.60
2023-02-25T19:00:19.488Z,3.50
2023-02-25T19:02:19.651Z,2.20
2023-02-25T19:04:50.356Z,2.60
2023-02-25T19:08:21.700Z,5.10
2023-02-25T19:10:53.605Z,2.70
2023-02-25T19:13:26.440Z,4.00
2023-02-25T19:14:56.569Z,7.20
2023-02-25T19:17:33.028Z,6.60
2023-02-25T19:20:06.530Z,8.30
2023-02-25T19:23:06.108Z,3.20
2023-02-25T19:24:06.060Z,2.80
2023-02-25T19:25:06.078Z,8.50
2023-02-25T19:30:39.440Z,4.10
2023-02-25T19:32:09.371Z,3.90
2023-02-25T19:37:13.103Z,5.60
2023-02-25T19:40:14.739Z,3.40
2023-02-25T19:46:56.825Z,6.70
2023-02-25T19:47:56.730Z,2.90
2023-02-25T19:48:56.704Z,3.20
2023-02-25T19:50:27.578Z,2.80
2023-02-25T19:52:27.718Z,5.10
2023-02-25T19:55:31.251Z,3.10
2023-02-25T19:57:03.133Z,3.40
2023-02-25T19:59:01.178Z,3.00
2023-02-25T20:01:03.098Z,2.30
2023-02-25T20:05:07.124Z,5.50
2023-02-25T20:08:39.127Z,5.30
2023-02-25T20:10:40.403Z,10.50
2023-02-25T20:13:11.248Z,5.70
2023-02-25T20:17:15.210Z,4.00
2023-02-25T20:19:15.320Z,4.60
2023-02-25T20:24:18.002Z,3.30
2023-02-25T20:26:18.519Z,4.40
2023-02-25T20:28:48.677Z,4.50
2023-02-25T20:31:19.840Z,3.00
2023-02-25T20:35:26.556Z,2.30
2023-02-25T20:38:57.919Z,5.80
2023-02-25T20:42:27.633Z,6.40
2023-02-25T20:45:00.003Z,5.20
2023-02-25T20:48:02.181Z,6.00
2023-02-25T20:49:02.164Z,4.60
2023-02-25T20:50:02.137Z,7.90
2023-02-25T20:51:02.132Z,3.40
2023-02-25T20:52:32.211Z,3.20
2023-02-25T20:55:02.382Z,2.20
2023-02-25T20:56:31.395Z,3.20
2023-02-25T20:58:32.678Z,4.00
2023-02-25T21:02:36.359Z,2.40
2023-02-25T21:07:43.082Z,4.90
2023-02-25T21:09:44.364Z,4.90
2023-02-25T21:11:44.805Z,3.80
2023-02-25T21:13:48.092Z,2.70
2023-02-25T21:15:18.216Z,4.90
2023-02-25T21:16:48.741Z,4.30
2023-02-25T21:19:24.141Z,8.40
2023-02-25T21:21:24.792Z,5.60
2023-02-25T21:22:55.738Z,4.20
2023-02-25T21:24:59.426Z,4.50
2023-02-25T21:29:03.574Z,13.10
2023-02-25T21:30:33.770Z,4.60
2023-02-25T21:34:06.471Z,5.90
2023-02-25T21:38:43.522Z,6.00
2023-02-25T21:39:43.512Z,4.10
2023-02-25T21:40:43.479Z,4.80
2023-02-25T21:42:13.568Z,4.80
2023-02-25T21:43:44.192Z,4.50
2023-02-25T21:47:50.792Z,5.80
2023-02-25T21:49:50.317Z,5.00
2023-02-25T21:53:21.739Z,6.20
2023-02-25T21:57:01.269Z,6.40
2023-02-25T22:02:06.835Z,3.60
2023-02-25T22:03:39.528Z,3.30
2023-02-25T22:05:42.298Z,5.50
2023-02-25T22:08:44.141Z,3.10
2023-02-25T22:11:16.765Z,3.80
2023-02-25T22:12:45.683Z,2.70
2023-02-25T22:14:15.508Z,4.80
2023-02-25T22:15:45.776Z,2.20
2023-02-25T22:17:47.521Z,4.10
2023-02-25T22:24:54.914Z,3.80
2023-02-25T22:27:58.397Z,1.30
2023-02-25T22:29:59.024Z,3.40
2023-02-25T22:31:59.321Z,1.90
2023-02-25T22:35:30.660Z,3.40
2023-02-25T22:37:33.733Z,3.60
2023-02-25T22:40:05.850Z,3.10
2023-02-25T22:42:37.413Z,6.50
2023-02-25T22:45:43.043Z,2.40
2023-02-25T22:48:12.481Z,5.20
2023-02-25T22:50:12.903Z,4.00
2023-02-25T23:01:02.528Z,4.60
2023-02-25T23:06:44.127Z,7.10
2023-02-25T23:11:12.824Z,8.00
2023-02-25T23:13:13.248Z,2.80
2023-02-25T23:16:16.011Z,5.10
2023-02-25T23:17:46.047Z,2.30
2023-02-25T23:21:50.310Z,1.50
2023-02-25T23:24:52.836Z,3.00
2023-02-25T23:26:54.898Z,1.00
2023-02-25T23:28:25.000Z,2.00
2023-02-25T23:34:00.033Z,3.40
2023-02-25T23:44:42.295Z,3.80
2023-02-25T23:47:15.517Z,2.40
2023-02-25T23:49:47.867Z,3.40
2023-02-25T23:51:18.793Z,2.70
2023-02-25T23:53:19.206Z,1.50
2023-02-25T23:58:54.247Z,3.10
